createdAt,value
2023-01-28T00:00:54.729Z,95.50
2023-01-28T00:03:22.223Z,95.40
2023-01-28T00:05:49.607Z,95.30
2023-01-28T00:08:16.999Z,95.30
2023-01-28T00:10:44.395Z,95.30
2023-01-28T00:13:14.837Z,95.20
2023-01-28T00:15:42.346Z,95.20
2023-01-28T00:18:09.684Z,95.30
2023-01-28T00:20:37.247Z,95.20
2023-01-28T00:23:04.616Z,95.20
2023-01-28T00:25:31.925Z,95.20
2023-01-28T00:27:59.245Z,95.10
2023-01-28T00:30:26.563Z,95.10
2023-01-28T00:32:54.877Z,95.00
2023-01-28T00:35:22.241Z,95.00
2023-01-28T00:37:49.547Z,95.00
2023-01-28T00:40:17.009Z,95.30
2023-01-28T00:42:44.421Z,94.80
2023-01-28T00:45:11.922Z,95.20
2023-01-28T00:47:39.233Z,94.80
2023-01-28T00:50:07.046Z,94.80
2023-01-28T00:52:34.415Z,94.80
2023-01-28T00:55:01.791Z,94.70
2023-01-28T00:57:29.099Z,94.70
2023-01-28T00:59:56.419Z,94.70
2023-01-28T01:02:23.992Z,94.60
2023-01-28T01:05:00.426Z,94.60
2023-01-28T01:07:34.799Z,94.60
2023-01-28T01:10:02.784Z,94.50
2023-01-28T01:12:30.575Z,94.60
2023-01-28T01:14:57.909Z,94.50
2023-01-28T01:17:25.273Z,94.50
2023-01-28T01:19:52.595Z,94.50
2023-01-28T01:22:19.995Z,94.50
2023-01-28T01:24:48.486Z,94.50
2023-01-28T01:27:15.741Z,94.40
2023-01-28T01:29:43.044Z,94.40
2023-01-28T01:32:10.410Z,94.40
2023-01-28T01:34:37.847Z,94.30
2023-01-28T01:37:06.410Z,94.30
2023-01-28T01:39:33.943Z,94.20
2023-01-28T01:42:01.830Z,94.10
2023-01-28T01:44:50.862Z,94.10
2023-01-28T01:47:19.014Z,94.10
2023-01-28T01:49:46.503Z,94.10
2023-01-28T01:52:21.148Z,94.10
2023-01-28T01:54:52.799Z,94.10
2023-01-28T01:57:24.963Z,94.00
2023-01-28T01:59:53.551Z,94.00
2023-01-28T02:02:21.869Z,94.00
2023-01-28T02:04:49.333Z,94.00
2023-01-28T02:07:18.491Z,94.00
2023-01-28T02:09:45.803Z,94.00
2023-01-28T02:12:27.455Z,94.00
2023-01-28T02:15:08.488Z,94.00
2023-01-28T02:17:37.221Z,94.00
2023-01-28T02:20:13.923Z,94.00
2023-01-28T02:22:57.322Z,94.00
2023-01-28T02:25:48.967Z,93.90
2023-01-28T02:28:40.048Z,93.90
2023-01-28T02:31:11.780Z,93.90
2023-01-28T02:33:51.785Z,93.90
2023-01-28T02:37:02.767Z,93.90
2023-01-28T02:39:35.781Z,93.90
2023-01-28T02:42:07.868Z,93.90
2023-01-28T02:44:35.206Z,93.90
2023-01-28T02:47:21.292Z,93.80
2023-01-28T02:49:54.396Z,93.80
2023-01-28T02:53:04.195Z,93.80
2023-01-28T02:55:44.137Z,93.90
2023-01-28T02:58:24.727Z,93.90
2023-01-28T03:01:18.454Z,93.90
2023-01-28T03:04:03.942Z,93.90
2023-01-28T03:06:39.220Z,93.90
2023-01-28T03:09:28.135Z,93.90
2023-01-28T03:12:15.504Z,93.80
2023-01-28T03:15:03.992Z,93.80
2023-01-28T03:17:56.438Z,93.80
2023-01-28T03:20:45.731Z,93.70
2023-01-28T03:23:39.102Z,93.70
2023-01-28T03:26:27.566Z,93.70
2023-01-28T03:29:18.741Z,93.60
2023-01-28T03:32:04.653Z,93.60
2023-01-28T03:34:50.619Z,93.60
2023-01-28T03:37:18.159Z,93.60
2023-01-28T03:39:48.761Z,93.60
2023-01-28T03:42:18.615Z,93.60
2023-01-28T03:45:08.023Z,93.50
2023-01-28T03:47:35.671Z,93.50
2023-01-28T03:50:07.247Z,93.50
2023-01-28T03:52:42.926Z,93.40
2023-01-28T03:55:25.924Z,93.40
2023-01-28T03:57:53.929Z,93.40
2023-01-28T04:00:22.047Z,93.50
2023-01-28T04:02:49.498Z,93.50
2023-01-28T04:05:20.277Z,93.50
2023-01-28T04:07:51.785Z,93.50
2023-01-28T04:10:26.796Z,93.50
2023-01-28T04:13:05.601Z,93.40
2023-01-28T04:15:33.862Z,93.40
2023-01-28T04:18:01.219Z,93.40
2023-01-28T04:20:31.752Z,93.40
2023-01-28T04:23:00.810Z,93.40
2023-01-28T04:25:29.346Z,93.40
2023-01-28T04:27:56.843Z,93.40
2023-01-28T04:30:28.163Z,93.30
2023-01-28T04:33:24.968Z,93.30
2023-01-28T04:36:00.391Z,93.30
2023-01-28T04:38:46.279Z,93.30
2023-01-28T04:41:40.793Z,93.30
2023-01-28T04:44:26.762Z,93.30
2023-01-28T04:47:01.334Z,93.30
2023-01-28T04:49:47.373Z,93.30
2023-01-28T04:52:26.834Z,93.30
2023-01-28T04:55:17.653Z,93.10
2023-01-28T04:57:50.551Z,93.00
2023-01-28T05:00:18.423Z,92.90
2023-01-28T05:02:45.674Z,92.90
2023-01-28T05:05:13.464Z,92.70
2023-01-28T05:07:56.951Z,92.60
2023-01-28T05:10:26.218Z,92.60
2023-01-28T05:12:54.783Z,92.50
2023-01-28T05:15:22.598Z,92.40
2023-01-28T05:17:56.167Z,92.40
2023-01-28T05:20:24.197Z,92.70
2023-01-28T05:22:52.135Z,92.30
2023-01-28T05:25:22.381Z,92.30
2023-01-28T05:27:51.650Z,92.20
2023-01-28T05:30:20.423Z,92.10
2023-01-28T05:32:48.145Z,92.10
2023-01-28T05:35:18.272Z,92.10
2023-01-28T05:37:45.842Z,92.10
2023-01-28T05:40:14.117Z,91.90
2023-01-28T05:42:41.552Z,91.90
2023-01-28T05:45:22.859Z,91.90
2023-01-28T05:48:02.584Z,91.90
2023-01-28T05:50:56.125Z,91.90
2023-01-28T05:53:32.939Z,91.90
2023-01-28T05:56:00.613Z,91.90
2023-01-28T05:58:32.122Z,91.80
2023-01-28T06:01:03.010Z,91.80
2023-01-28T06:03:39.033Z,91.80
2023-01-28T06:06:06.730Z,91.90
2023-01-28T06:08:34.146Z,91.90
2023-01-28T06:11:01.576Z,91.90
2023-01-28T06:13:33.269Z,91.90
2023-01-28T06:16:26.552Z,91.90
2023-01-28T06:19:12.554Z,91.90
2023-01-28T06:21:39.892Z,91.80
2023-01-28T06:24:07.529Z,91.90
2023-01-28T06:26:34.939Z,91.90
2023-01-28T06:29:02.346Z,91.80
2023-01-28T06:31:29.681Z,91.90
2023-01-28T06:33:57.015Z,91.90
2023-01-28T06:36:24.385Z,91.90
2023-01-28T06:38:51.800Z,91.90
2023-01-28T06:41:19.047Z,91.90
2023-01-28T06:43:46.314Z,91.90
2023-01-28T06:46:13.753Z,91.90
2023-01-28T06:48:41.107Z,91.80
2023-01-28T06:51:08.442Z,91.80
2023-01-28T06:53:35.794Z,91.70
2023-01-28T06:56:03.298Z,91.70
2023-01-28T06:58:30.799Z,91.70
2023-01-28T07:00:58.197Z,91.70
2023-01-28T07:03:25.631Z,91.70
2023-01-28T07:05:53.040Z,91.70
2023-01-28T07:08:20.344Z,91.70
2023-01-28T07:10:49.271Z,91.70
2023-01-28T07:13:16.673Z,91.80
2023-01-28T07:15:44.535Z,91.70
2023-01-28T07:18:11.999Z,91.70
2023-01-28T07:20:39.262Z,91.60
2023-01-28T07:23:06.621Z,91.60
2023-01-28T07:25:34.015Z,91.60
2023-01-28T07:28:02.020Z,91.60
2023-01-28T07:30:29.380Z,91.60
2023-01-28T07:32:58.260Z,91.60
2023-01-28T07:35:26.683Z,91.10
2023-01-28T07:37:59.057Z,90.70
2023-01-28T07:40:27.642Z,90.70
2023-01-28T07:42:56.428Z,90.70
2023-01-28T07:45:25.873Z,90.70
2023-01-28T07:48:01.902Z,90.70
2023-01-28T07:50:30.625Z,90.60
2023-01-28T07:52:57.971Z,90.70
2023-01-28T07:55:25.788Z,90.80
2023-01-28T07:57:56.845Z,91.00
2023-01-28T08:00:25.744Z,91.20
2023-01-28T08:03:01.160Z,91.60
2023-01-28T08:05:41.531Z,91.30
2023-01-28T08:08:10.043Z,91.30
2023-01-28T08:10:38.296Z,91.40
2023-01-28T08:13:06.640Z,91.70
2023-01-28T08:15:35.467Z,91.90
2023-01-28T08:18:04.243Z,92.00
2023-01-28T08:20:31.794Z,92.20
2023-01-28T08:23:18.157Z,92.60
2023-01-28T08:25:46.778Z,92.70
2023-01-28T08:28:15.366Z,92.90
2023-01-28T08:30:44.298Z,92.70
2023-01-28T08:33:13.760Z,92.80
2023-01-28T08:35:41.565Z,93.20
2023-01-28T08:38:10.524Z,92.70
2023-01-28T08:40:38.111Z,92.70
2023-01-28T08:43:05.566Z,93.30
2023-01-28T08:45:33.349Z,93.00
2023-01-28T08:48:03.289Z,92.40
2023-01-28T08:50:35.998Z,91.80
2023-01-28T08:53:07.605Z,91.80
2023-01-28T08:55:35.193Z,92.50
2023-01-28T08:58:04.602Z,92.60
2023-01-28T09:00:32.789Z,93.10
2023-01-28T09:03:00.157Z,93.00
2023-01-28T09:05:27.575Z,93.10
2023-01-28T09:07:54.969Z,93.20
2023-01-28T09:10:22.443Z,93.00
2023-01-28T09:12:49.723Z,92.80
2023-01-28T09:15:17.911Z,92.50
2023-01-28T09:17:45.232Z,91.70
2023-01-28T09:20:13.665Z,91.30
2023-01-28T09:22:41.339Z,89.60
2023-01-28T09:25:09.417Z,73.00
2023-01-28T09:27:36.701Z,69.20
2023-01-28T09:30:04.427Z,70.90
2023-01-28T09:32:31.710Z,74.20
2023-01-28T09:34:59.154Z,73.00
2023-01-28T09:37:26.517Z,73.90
2023-01-28T09:39:53.805Z,73.90
2023-01-28T09:42:39.621Z,74.00
2023-01-28T09:45:19.062Z,74.80
2023-01-28T09:47:57.981Z,75.50
2023-01-28T09:50:33.250Z,76.30
2023-01-28T09:53:06.782Z,76.60
2023-01-28T09:55:44.291Z,77.30
2023-01-28T09:58:15.646Z,77.30
2023-01-28T10:01:11.059Z,80.60
2023-01-28T10:03:54.782Z,80.40
2023-01-28T10:06:31.158Z,80.00
2023-01-28T10:09:41.353Z,80.00
2023-01-28T10:12:17.590Z,80.20
2023-01-28T10:14:53.817Z,80.50
2023-01-28T10:17:32.231Z,82.20
2023-01-28T10:20:18.093Z,83.50
2023-01-28T10:23:06.031Z,83.70
2023-01-28T10:25:34.859Z,83.60
2023-01-28T10:28:02.895Z,83.50
2023-01-28T10:30:32.901Z,84.30
2023-01-28T10:33:16.141Z,85.20
2023-01-28T10:35:43.786Z,85.40
2023-01-28T10:38:16.249Z,86.60
2023-01-28T10:40:44.491Z,86.90
2023-01-28T10:43:11.942Z,87.40
2023-01-28T10:46:19.133Z,87.70
2023-01-28T10:49:02.475Z,87.10
2023-01-28T10:51:39.076Z,87.30
2023-01-28T10:54:21.640Z,87.30
2023-01-28T10:56:53.119Z,87.80
2023-01-28T10:59:36.726Z,87.80
2023-01-28T11:02:25.785Z,88.00
2023-01-28T11:05:11.544Z,88.20
2023-01-28T11:07:38.955Z,88.40
2023-01-28T11:10:24.384Z,88.90
2023-01-28T11:12:59.586Z,88.30
2023-01-28T11:15:27.171Z,88.00
2023-01-28T11:18:02.124Z,88.10
2023-01-28T11:20:35.485Z,88.30
2023-01-28T11:23:02.828Z,87.60
2023-01-28T11:25:34.347Z,86.90
2023-01-28T11:28:07.674Z,85.50
2023-01-28T11:30:40.303Z,85.20
2023-01-28T11:33:10.714Z,86.70
2023-01-28T11:35:38.035Z,84.70
2023-01-28T11:38:21.896Z,86.80
2023-01-28T11:40:53.689Z,88.00
2023-01-28T11:43:23.325Z,88.20
2023-01-28T11:46:18.831Z,89.50
2023-01-28T11:49:11.841Z,90.10
2023-01-28T11:52:00.484Z,90.60
2023-01-28T11:54:39.081Z,90.90
2023-01-28T11:57:24.259Z,90.90
2023-01-28T12:00:16.851Z,91.80
2023-01-28T12:03:06.074Z,92.30
2023-01-28T12:05:46.278Z,93.10
2023-01-28T12:08:20.553Z,93.70
2023-01-28T12:11:15.152Z,94.20
2023-01-28T12:14:10.471Z,93.40
2023-01-28T12:17:07.517Z,93.40
2023-01-28T12:19:46.745Z,93.40
2023-01-28T12:22:35.488Z,94.10
2023-01-28T12:25:33.571Z,93.70
2023-01-28T12:28:16.433Z,93.70
2023-01-28T12:30:49.889Z,94.00
2023-01-28T12:33:44.516Z,94.60
2023-01-28T12:36:36.043Z,94.10
2023-01-28T12:39:17.986Z,94.10
2023-01-28T12:41:51.177Z,93.60
2023-01-28T12:44:29.196Z,94.40
2023-01-28T12:47:07.797Z,94.00
2023-01-28T12:49:37.459Z,94.50
2023-01-28T12:52:19.095Z,94.40
2023-01-28T12:55:00.370Z,93.20
2023-01-28T12:57:31.096Z,92.50
2023-01-28T13:00:19.050Z,91.50
2023-01-28T13:02:55.856Z,91.40
2023-01-28T13:05:31.130Z,90.30
2023-01-28T13:08:11.897Z,85.60
2023-01-28T13:10:44.170Z,82.30
2023-01-28T13:13:32.282Z,82.80
2023-01-28T13:16:00.697Z,84.90
2023-01-28T13:18:42.530Z,85.50
2023-01-28T13:21:43.721Z,83.70
2023-01-28T13:24:16.125Z,82.10
2023-01-28T13:26:49.290Z,79.90
2023-01-28T13:29:28.148Z,83.30
2023-01-28T13:31:58.522Z,85.60
2023-01-28T13:34:56.956Z,88.20
2023-01-28T13:37:32.197Z,82.70
2023-01-28T13:40:05.162Z,80.30
2023-01-28T13:42:33.040Z,78.70
2023-01-28T13:45:15.607Z,76.70
2023-01-28T13:47:50.677Z,76.10
2023-01-28T13:50:25.541Z,74.80
2023-01-28T13:53:00.670Z,76.90
2023-01-28T13:55:44.797Z,75.30
2023-01-28T13:59:09.611Z,75.70
2023-01-28T14:01:54.893Z,75.50
2023-01-28T14:04:22.263Z,73.50
2023-01-28T14:07:17.427Z,73.70
2023-01-28T14:10:13.995Z,73.20
2023-01-28T14:12:57.805Z,75.30
2023-01-28T14:15:54.672Z,72.70
2023-01-28T14:18:33.584Z,71.60
2023-01-28T14:21:03.321Z,71.20
2023-01-28T14:23:32.413Z,71.60
2023-01-28T14:26:16.248Z,73.10
2023-01-28T14:28:46.636Z,74.60
2023-01-28T14:31:34.878Z,75.50
2023-01-28T14:34:22.910Z,74.30
2023-01-28T14:36:52.687Z,76.00
2023-01-28T14:39:39.487Z,77.20
2023-01-28T14:42:23.459Z,78.40
2023-01-28T14:45:02.008Z,78.70
2023-01-28T14:47:34.919Z,79.30
2023-01-28T14:50:08.325Z,79.70
2023-01-28T14:53:01.595Z,79.80
2023-01-28T14:55:53.715Z,80.10
2023-01-28T14:58:23.168Z,80.80
2023-01-28T15:01:00.233Z,80.60
2023-01-28T15:03:29.507Z,80.90
2023-01-28T15:06:15.532Z,81.10
2023-01-28T15:08:43.246Z,82.10
2023-01-28T15:11:18.298Z,82.50
2023-01-28T15:13:49.426Z,83.40
2023-01-28T15:16:20.420Z,84.20
2023-01-28T15:18:49.451Z,84.70
2023-01-28T15:21:28.149Z,84.70
2023-01-28T15:24:01.012Z,84.50
2023-01-28T15:26:31.805Z,85.00
2023-01-28T15:29:00.418Z,84.20
2023-01-28T15:31:33.647Z,80.20
2023-01-28T15:34:02.305Z,78.50
2023-01-28T15:36:31.141Z,79.00
2023-01-28T15:38:59.971Z,78.60
2023-01-28T15:41:35.062Z,79.70
2023-01-28T15:44:04.051Z,80.60
2023-01-28T15:46:32.143Z,80.50
2023-01-28T15:49:04.139Z,81.30
2023-01-28T15:51:34.074Z,82.10
2023-01-28T15:54:07.661Z,82.00
2023-01-28T15:56:35.831Z,82.20
2023-01-28T15:59:27.170Z,82.10
2023-01-28T16:02:21.124Z,82.70
2023-01-28T16:05:03.490Z,82.10
2023-01-28T16:07:33.962Z,81.90
2023-01-28T16:10:03.597Z,81.20
2023-01-28T16:12:31.076Z,81.30
2023-01-28T16:15:04.294Z,82.20
2023-01-28T16:17:39.837Z,82.60
2023-01-28T16:20:19.497Z,82.60
2023-01-28T16:22:47.332Z,83.30
2023-01-28T16:25:36.917Z,84.00
2023-01-28T16:28:19.497Z,85.80
2023-01-28T16:30:47.212Z,85.60
2023-01-28T16:33:22.169Z,85.90
2023-01-28T16:36:05.486Z,85.20
2023-01-28T16:38:35.167Z,85.40
2023-01-28T16:41:02.823Z,86.40
2023-01-28T16:43:30.372Z,86.30
2023-01-28T16:45:57.872Z,86.70
2023-01-28T16:48:25.417Z,86.50
2023-01-28T16:50:52.896Z,86.40
2023-01-28T16:53:30.164Z,86.50
2023-01-28T16:55:57.685Z,86.80
2023-01-28T16:58:27.208Z,86.80
2023-01-28T17:00:54.948Z,87.00
2023-01-28T17:03:23.039Z,88.10
2023-01-28T17:05:50.933Z,87.50
2023-01-28T17:08:18.510Z,87.80
2023-01-28T17:10:45.956Z,87.50
2023-01-28T17:13:13.384Z,87.50
2023-01-28T17:15:41.031Z,87.70
2023-01-28T17:18:10.621Z,87.70
2023-01-28T17:20:40.413Z,87.70
2023-01-28T17:23:09.579Z,87.80
2023-01-28T17:25:39.218Z,87.70
2023-01-28T17:28:08.158Z,87.70
2023-01-28T17:30:40.333Z,87.70
2023-01-28T17:33:08.961Z,87.70
2023-01-28T17:35:36.686Z,87.80
2023-01-28T17:38:05.395Z,88.00
2023-01-28T17:40:33.261Z,88.80
2023-01-28T17:43:00.717Z,88.50
2023-01-28T17:45:31.327Z,87.70
2023-01-28T17:47:58.773Z,87.80
2023-01-28T17:50:26.828Z,87.80
2023-01-28T17:52:55.983Z,88.60
2023-01-28T17:55:24.507Z,86.30
2023-01-28T17:57:52.337Z,85.80
2023-01-28T18:00:20.618Z,85.50
2023-01-28T18:02:51.069Z,85.40
2023-01-28T18:05:19.507Z,84.80
2023-01-28T18:07:47.139Z,86.00
2023-01-28T18:10:15.287Z,85.70
2023-01-28T18:12:42.861Z,85.60
2023-01-28T18:15:11.341Z,85.90
2023-01-28T18:17:38.982Z,86.00
2023-01-28T18:20:06.903Z,86.10
2023-01-28T18:22:34.409Z,86.80
2023-01-28T20:08:53.500Z,92.90
2023-01-28T20:11:21.876Z,93.30
2023-01-28T20:13:51.621Z,93.80
2023-01-28T20:16:24.357Z,93.50
2023-01-28T20:19:14.754Z,93.60
2023-01-28T20:21:42.664Z,93.00
2023-01-28T20:24:14.898Z,92.30
2023-01-28T20:26:43.906Z,92.10
2023-01-28T20:29:18.052Z,93.00
2023-01-28T20:31:54.069Z,92.80
2023-01-28T20:34:28.554Z,92.60
2023-01-28T20:36:55.910Z,92.80
2023-01-28T20:39:23.360Z,92.90
2023-01-28T20:41:51.050Z,92.20
2023-01-28T20:44:18.450Z,92.60
2023-01-28T20:46:45.689Z,93.00
2023-01-28T20:49:13.037Z,93.60
2023-01-28T20:51:40.583Z,94.00
2023-01-28T20:54:07.887Z,93.70
2023-01-28T20:56:35.256Z,93.60
2023-01-28T20:59:05.285Z,93.40
2023-01-28T21:01:35.590Z,93.40
2023-01-28T21:04:04.884Z,93.40
2023-01-28T21:06:32.653Z,93.40
2023-01-28T21:09:00.155Z,93.30
2023-01-28T21:11:27.684Z,92.90
2023-01-28T21:13:56.123Z,93.00
2023-01-28T21:16:24.287Z,92.70
2023-01-28T21:18:51.817Z,92.70
2023-01-28T21:21:21.671Z,92.60
2023-01-28T21:23:49.632Z,92.60
2023-01-28T21:26:17.495Z,92.50
2023-01-28T21:28:45.273Z,92.50
2023-01-28T21:31:18.031Z,92.50
2023-01-28T21:33:54.909Z,92.50
2023-01-28T21:36:22.788Z,92.30
2023-01-28T21:38:57.781Z,92.20
2023-01-28T21:41:25.640Z,92.20
2023-01-28T21:43:55.037Z,92.10
2023-01-28T21:46:24.262Z,92.40
2023-01-28T21:49:03.283Z,92.20
2023-01-28T21:51:40.348Z,92.30
2023-01-28T21:54:16.718Z,92.30
2023-01-28T21:56:45.465Z,92.30
2023-01-28T21:59:28.596Z,93.10
2023-01-28T22:02:24.085Z,92.60
2023-01-28T22:04:51.500Z,92.70
2023-01-28T22:07:20.144Z,92.60
2023-01-28T22:09:47.839Z,92.50
2023-01-28T22:12:16.097Z,92.80
2023-01-28T22:14:44.217Z,92.90
2023-01-28T22:17:12.049Z,92.50
2023-01-28T22:19:39.649Z,92.50
2023-01-28T22:22:07.451Z,92.50
2023-01-28T22:24:34.806Z,92.60
2023-01-28T22:27:02.092Z,92.10
2023-01-28T22:29:29.366Z,92.40
2023-01-28T22:31:56.823Z,92.20
2023-01-28T22:34:24.313Z,92.20
2023-01-28T22:36:51.758Z,92.00
2023-01-28T22:39:19.133Z,92.00
2023-01-28T22:41:47.047Z,91.80
2023-01-28T22:44:14.799Z,91.80
2023-01-28T22:46:42.290Z,91.70
2023-01-28T22:49:12.015Z,91.70
2023-01-28T22:51:39.524Z,91.70
2023-01-28T22:54:07.238Z,91.60
2023-01-28T22:56:34.643Z,91.50
2023-01-28T22:59:03.678Z,91.30
2023-01-28T23:01:31.239Z,91.40
2023-01-28T23:03:58.851Z,91.30
2023-01-28T23:06:27.408Z,91.30
2023-01-28T23:08:56.271Z,91.30
2023-01-28T23:11:28.475Z,91.20
2023-01-28T23:14:21.009Z,91.10
2023-01-28T23:17:07.858Z,91.10
2023-01-28T23:19:54.157Z,91.00
2023-01-28T23:22:51.713Z,90.90
2023-01-28T23:25:19.835Z,90.80
2023-01-28T23:27:47.175Z,90.70
2023-01-28T23:30:15.454Z,90.70
2023-01-28T23:32:47.461Z,90.70
2023-01-28T23:35:15.522Z,90.60
2023-01-28T23:37:42.890Z,90.60
2023-01-28T23:40:10.850Z,90.50
2023-01-28T23:42:38.162Z,90.40
2023-01-28T23:45:06.722Z,90.40
2023-01-28T23:47:34.087Z,90.40
2023-01-28T23:50:01.901Z,90.30
2023-01-28T23:52:29.199Z,90.20
2023-01-28T23:54:56.467Z,90.20
2023-01-28T23:57:23.923Z,90.10
2023-01-28T23:59:51.899Z,90.10
